createdAt,value
2022-10-30T00:00:47.919Z,12.6
2022-10-30T00:01:52.422Z,12.5
2022-10-30T00:02:57.055Z,13.1
2022-10-30T00:04:01.292Z,12.6
2022-10-30T00:05:05.740Z,14
2022-10-30T00:06:13.003Z,15.4
2022-10-30T00:07:17.491Z,14.1
2022-10-30T00:08:22.004Z,13.8
2022-10-30T00:09:26.320Z,15.2
2022-10-30T00:10:30.685Z,15.4
2022-10-30T00:11:35.971Z,13.2
2022-10-30T00:12:40.380Z,13
2022-10-30T00:13:44.967Z,14.5
2022-10-30T00:14:49.631Z,13.9
2022-10-30T00:15:54.140Z,15.5
2022-10-30T00:16:58.713Z,13
2022-10-30T00:18:03.543Z,13.6
2022-10-30T00:19:07.903Z,15.1
2022-10-30T00:20:12.491Z,16.1
2022-10-30T00:21:17.073Z,13.8
2022-10-30T00:22:21.164Z,14.6
2022-10-30T00:23:25.719Z,12.7
2022-10-30T00:24:29.776Z,13.9
2022-10-30T00:25:35.883Z,13.6
2022-10-30T00:26:39.960Z,16
2022-10-30T00:27:44.069Z,12.9
2022-10-30T00:28:48.653Z,13.6
2022-10-30T00:29:52.712Z,16.6
2022-10-30T00:30:58.904Z,16.7
2022-10-30T00:32:03.472Z,14.1
2022-10-30T00:33:07.576Z,13.9
2022-10-30T00:34:11.745Z,14.3
2022-10-30T00:35:16.465Z,13.9
2022-10-30T00:36:22.918Z,13.8
2022-10-30T00:37:28.275Z,13.8
2022-10-30T00:38:32.511Z,13.1
2022-10-30T00:39:36.690Z,13.7
2022-10-30T00:40:41.212Z,13.1
2022-10-30T00:41:45.968Z,15
2022-10-30T00:42:51.120Z,15.4
2022-10-30T00:43:55.521Z,15.1
2022-10-30T00:45:00.037Z,15.8
2022-10-30T00:46:04.548Z,13.9
2022-10-30T00:47:17.070Z,14.2
2022-10-30T00:48:21.564Z,13.9
2022-10-30T00:49:26.524Z,14.5
2022-10-30T00:50:36.492Z,14.2
2022-10-30T00:51:40.887Z,14.1
2022-10-30T00:52:50.932Z,14.6
2022-10-30T00:53:55.028Z,14.8
2022-10-30T00:54:59.736Z,14.4
2022-10-30T00:56:07.006Z,15.6
2022-10-30T00:57:12.895Z,15.6
2022-10-30T00:58:17.152Z,14.3
2022-10-30T00:59:21.635Z,16
2022-10-30T01:00:29.799Z,16.4
2022-10-30T01:01:34.483Z,15.7
2022-10-30T01:02:40.977Z,15.1
2022-10-30T01:03:45.010Z,16.1
2022-10-30T01:04:49.128Z,13.8
2022-10-30T01:05:53.234Z,14
2022-10-30T01:06:57.792Z,15.7
2022-10-30T01:08:02.369Z,17
2022-10-30T01:09:06.529Z,15.4
2022-10-30T01:10:10.760Z,15
2022-10-30T01:11:15.239Z,15.4
2022-10-30T01:12:20.204Z,14.1
2022-10-30T01:13:24.871Z,13.5
2022-10-30T01:14:29.479Z,12.9
2022-10-30T01:15:34.668Z,12.9
2022-10-30T01:16:39.092Z,14.3
2022-10-30T01:17:55.085Z,12.3
2022-10-30T01:19:09.684Z,12.6
2022-10-30T01:20:21.873Z,14.6
2022-10-30T01:21:34.596Z,12.9
2022-10-30T01:22:47.424Z,13.5
2022-10-30T01:23:56.964Z,14.1
2022-10-30T01:25:12.339Z,12.6
2022-10-30T01:26:27.032Z,13
2022-10-30T01:27:36.788Z,15.9
2022-10-30T01:28:51.499Z,12.9
2022-10-30T01:30:03.653Z,13.8
2022-10-30T01:31:16.027Z,13.9
2022-10-30T01:32:26.696Z,13.1
2022-10-30T01:33:41.469Z,13.1
2022-10-30T01:34:53.624Z,13
2022-10-30T01:36:03.260Z,14.9
2022-10-30T01:37:10.560Z,12.8
2022-10-30T01:38:17.676Z,12.2
2022-10-30T01:39:22.199Z,13.3
2022-10-30T01:40:29.432Z,12.9
2022-10-30T01:41:33.987Z,14.1
2022-10-30T01:42:39.896Z,16.5
2022-10-30T01:43:44.632Z,13.2
2022-10-30T01:44:48.985Z,14.1
2022-10-30T01:45:53.511Z,15
2022-10-30T01:47:06.051Z,14.3
2022-10-30T01:48:14.035Z,15
2022-10-30T01:49:26.497Z,12.9
2022-10-30T01:50:38.752Z,13.7
2022-10-30T01:51:53.540Z,14.6
2022-10-30T01:53:03.108Z,13.3
2022-10-30T01:54:12.351Z,12.7
2022-10-30T01:55:24.969Z,16
2022-10-30T01:56:37.239Z,13.2
2022-10-30T01:57:44.391Z,13.3
2022-10-30T01:58:51.920Z,13.5
2022-10-30T02:00:01.111Z,12.4
2022-10-30T02:01:08.526Z,13.6
2022-10-30T02:02:13.043Z,13.8
2022-10-30T02:03:17.895Z,14.6
2022-10-30T02:04:22.321Z,15.4
2022-10-30T02:05:26.709Z,13.4
2022-10-30T02:06:33.783Z,12.7
2022-10-30T02:07:38.099Z,13.1
2022-10-30T02:08:44.225Z,13.8
2022-10-30T02:09:48.605Z,14.1
2022-10-30T02:10:53.112Z,12.9
2022-10-30T02:11:57.292Z,13
2022-10-30T02:13:02.135Z,14.2
2022-10-30T02:14:06.440Z,14.4
2022-10-30T02:15:10.536Z,14.4
2022-10-30T02:16:15.156Z,14.6
2022-10-30T02:17:19.867Z,15.4
2022-10-30T02:18:24.268Z,12.6
2022-10-30T02:19:28.939Z,14.3
2022-10-30T02:20:33.424Z,14.3
2022-10-30T02:21:37.556Z,13.9
2022-10-30T02:22:42.177Z,14.6
2022-10-30T02:23:46.663Z,14.1
2022-10-30T02:24:53.940Z,12.9
2022-10-30T02:25:58.616Z,12.7
2022-10-30T02:27:03.247Z,12.7
2022-10-30T02:28:07.564Z,13.5
2022-10-30T02:29:11.771Z,13.4
2022-10-30T02:30:17.943Z,13.1
2022-10-30T02:31:22.408Z,12.7
2022-10-30T02:32:26.760Z,14.6
2022-10-30T02:33:31.029Z,13
2022-10-30T02:34:35.215Z,14
2022-10-30T02:35:41.063Z,13.7
2022-10-30T02:36:45.292Z,14.9
2022-10-30T02:37:49.923Z,15.9
2022-10-30T02:38:54.475Z,15
2022-10-30T02:39:58.970Z,14.9
2022-10-30T02:41:04.271Z,14.2
2022-10-30T02:42:09.910Z,13.5
2022-10-30T02:43:14.681Z,14.2
2022-10-30T02:44:19.071Z,14.8
2022-10-30T02:45:23.567Z,13.9
2022-10-30T02:46:28.221Z,13.4
2022-10-30T02:47:33.945Z,13.5
2022-10-30T02:48:38.328Z,13.8
2022-10-30T02:49:42.788Z,12.8
2022-10-30T02:50:46.889Z,14.9
2022-10-30T02:51:51.491Z,14.1
2022-10-30T02:52:58.161Z,12.7
2022-10-30T02:54:02.240Z,14.2
2022-10-30T02:55:06.741Z,14.5
2022-10-30T02:56:10.871Z,14.6
2022-10-30T02:57:14.919Z,15.9
2022-10-30T02:58:19.931Z,15.8
2022-10-30T02:59:24.138Z,14.3
2022-10-30T03:00:29.082Z,13.1
2022-10-30T03:01:33.649Z,14.5
2022-10-30T03:02:38.020Z,14.2
2022-10-30T03:03:42.944Z,14.3
2022-10-30T03:04:47.490Z,13.2
2022-10-30T03:05:52.927Z,13.1
2022-10-30T03:06:57.260Z,12.9
2022-10-30T03:08:02.246Z,14.8
2022-10-30T03:09:06.339Z,13.7
2022-10-30T03:10:10.930Z,15.3
2022-10-30T03:11:17.915Z,15.9
2022-10-30T03:12:22.203Z,14.7
2022-10-30T03:13:26.726Z,13.2
2022-10-30T03:14:30.888Z,14.1
2022-10-30T03:15:35.507Z,14.2
2022-10-30T03:16:40.108Z,13.5
2022-10-30T03:17:44.674Z,15.4
2022-10-30T03:18:49.070Z,14.2
2022-10-30T03:19:53.367Z,16.4
2022-10-30T03:20:58.668Z,14.5
2022-10-30T03:22:02.883Z,13.1
2022-10-30T03:23:07.005Z,13.7
2022-10-30T03:24:11.287Z,12.9
2022-10-30T03:25:15.756Z,13.7
2022-10-30T03:26:20.200Z,17
2022-10-30T03:27:24.930Z,14.5
2022-10-30T03:28:29.516Z,13.7
2022-10-30T03:29:34.335Z,13.3
2022-10-30T03:30:38.862Z,15.6
2022-10-30T03:31:43.288Z,16
2022-10-30T03:32:47.772Z,14.8
2022-10-30T03:33:52.299Z,15.1
2022-10-30T03:34:57.903Z,14
2022-10-30T03:36:01.953Z,14.3
2022-10-30T03:37:06.587Z,15.9
2022-10-30T03:38:11.187Z,13.9
2022-10-30T03:39:15.340Z,13.3
2022-10-30T03:40:21.991Z,13.8
2022-10-30T03:41:26.488Z,13.8
2022-10-30T03:42:31.138Z,14.5
2022-10-30T03:43:35.625Z,13.9
2022-10-30T03:44:39.824Z,13.5
2022-10-30T03:45:44.359Z,14.8
2022-10-30T03:46:48.827Z,13.9
2022-10-30T03:47:52.995Z,14.6
2022-10-30T03:48:57.524Z,14.5
2022-10-30T03:50:01.952Z,14.6
2022-10-30T03:51:06.704Z,15.4
2022-10-30T03:52:11.454Z,14.3
2022-10-30T03:53:15.948Z,15.5
2022-10-30T03:54:20.539Z,15.4
2022-10-30T03:55:25.235Z,15.5
2022-10-30T03:56:29.890Z,14.4
2022-10-30T03:57:34.272Z,14.6
2022-10-30T03:58:38.863Z,16.5
2022-10-30T03:59:43.409Z,15.6
2022-10-30T04:00:49.923Z,14.8
2022-10-30T04:02:56.491Z,14.8
2022-10-30T04:05:02.784Z,14.8
2022-10-30T04:06:09.916Z,14.8
2022-10-30T04:07:14.044Z,14.8
2022-10-30T04:08:18.103Z,14
2022-10-30T04:09:22.836Z,14.5
2022-10-30T04:10:27.378Z,15.3
2022-10-30T04:11:31.996Z,15.7
2022-10-30T04:12:36.380Z,17.8
2022-10-30T04:13:40.567Z,13.9
2022-10-30T04:14:45.088Z,14.2
2022-10-30T04:15:53.849Z,14
2022-10-30T04:16:53.739Z,14.3
2022-10-30T04:17:57.921Z,13.9
2022-10-30T04:19:02.059Z,14.6
2022-10-30T04:20:06.451Z,14.7
2022-10-30T04:21:11.071Z,15.5
2022-10-30T04:22:17.911Z,14.6
2022-10-30T04:23:22.323Z,15.7
2022-10-30T04:24:26.931Z,16.2
2022-10-30T04:25:31.405Z,15
2022-10-30T04:26:35.459Z,14.6
2022-10-30T04:27:40.361Z,14.7
2022-10-30T04:28:44.851Z,14.4
2022-10-30T04:29:49.243Z,15.5
2022-10-30T04:30:53.807Z,14.3
2022-10-30T04:31:57.946Z,14.7
2022-10-30T04:33:03.947Z,14.2
2022-10-30T04:34:08.068Z,16.2
2022-10-30T04:35:12.360Z,15.3
2022-10-30T04:36:16.808Z,14.2
2022-10-30T04:37:21.391Z,14.4
2022-10-30T04:38:26.923Z,16.3
2022-10-30T04:39:31.100Z,14.1
2022-10-30T04:40:35.675Z,15.8
2022-10-30T04:41:40.235Z,15.6
2022-10-30T04:42:44.819Z,16.4
2022-10-30T04:43:51.989Z,15.5
2022-10-30T04:44:56.548Z,15.9
2022-10-30T04:46:01.075Z,14.2
2022-10-30T04:47:05.699Z,14.6
2022-10-30T04:48:10.267Z,16.6
2022-10-30T04:49:15.042Z,16.5
2022-10-30T04:50:19.429Z,16.7
2022-10-30T04:51:23.642Z,16.9
2022-10-30T04:52:28.152Z,16.3
2022-10-30T04:53:32.889Z,15.5
2022-10-30T04:54:37.407Z,15.3
2022-10-30T04:55:41.790Z,13.9
2022-10-30T04:56:45.933Z,14.6
2022-10-30T04:57:50.423Z,17.1
2022-10-30T04:58:57.512Z,13.9
2022-10-30T05:00:02.995Z,14.5
2022-10-30T05:01:07.774Z,15.2
2022-10-30T05:02:12.032Z,16.7
2022-10-30T05:03:16.016Z,17
2022-10-30T05:04:20.527Z,17
2022-10-30T05:05:24.938Z,17.6
2022-10-30T05:06:29.195Z,15.8
2022-10-30T05:07:33.479Z,17.4
2022-10-30T05:08:38.029Z,17.1
2022-10-30T05:09:42.451Z,15.2
2022-10-30T05:10:48.995Z,15.4
2022-10-30T05:11:57.345Z,19.4
2022-10-30T05:12:57.763Z,14.5
2022-10-30T05:14:02.319Z,16.8
2022-10-30T05:15:07.070Z,15.3
2022-10-30T05:16:13.959Z,15
2022-10-30T05:17:18.200Z,14.9
2022-10-30T05:18:22.957Z,15.8
2022-10-30T05:19:27.218Z,15.7
2022-10-30T05:20:31.387Z,15.6
2022-10-30T05:21:36.134Z,16.6
2022-10-30T05:22:40.640Z,16.6
2022-10-30T05:23:45.155Z,14.9
2022-10-30T05:24:49.748Z,15.8
2022-10-30T05:25:54.179Z,16.8
2022-10-30T05:26:58.360Z,16.8
2022-10-30T05:28:02.976Z,14.5
2022-10-30T05:29:07.470Z,14.3
2022-10-30T05:30:12.051Z,15.5
2022-10-30T05:31:17.059Z,16.3
2022-10-30T05:32:24.911Z,16.9
2022-10-30T05:33:29.467Z,15
2022-10-30T05:34:33.887Z,15.9
2022-10-30T05:35:38.640Z,15.2
2022-10-30T05:36:43.243Z,12.9
2022-10-30T05:37:48.933Z,13.4
2022-10-30T05:38:53.331Z,13.3
2022-10-30T05:39:58.046Z,14
2022-10-30T05:41:02.370Z,15.7
2022-10-30T05:42:09.863Z,13.4
2022-10-30T05:43:11.991Z,14.8
2022-10-30T05:44:28.746Z,15.5
2022-10-30T05:45:20.931Z,13.7
2022-10-30T05:46:25.253Z,12.7
2022-10-30T05:47:29.429Z,13.2
2022-10-30T05:48:36.997Z,13.9
2022-10-30T05:49:41.183Z,15
2022-10-30T05:50:45.651Z,16.4
2022-10-30T05:51:50.250Z,12.8
2022-10-30T05:52:54.659Z,12.8
2022-10-30T05:54:00.154Z,14.2
2022-10-30T05:55:04.490Z,12.5
2022-10-30T05:56:09.274Z,13.6
2022-10-30T05:57:13.630Z,12.5
2022-10-30T05:58:18.216Z,13.2
2022-10-30T05:59:23.958Z,13.5
2022-10-30T06:00:28.968Z,12.5
2022-10-30T06:01:33.793Z,13.6
2022-10-30T06:02:38.144Z,14.1
2022-10-30T06:03:43.824Z,16.2
2022-10-30T06:04:49.080Z,14.3
2022-10-30T06:05:53.722Z,15.2
2022-10-30T06:06:57.816Z,15.5
2022-10-30T06:08:01.904Z,12.9
2022-10-30T06:09:06.455Z,23.7
2022-10-30T06:10:11.123Z,13.8
2022-10-30T06:11:15.763Z,12.4
2022-10-30T06:12:20.375Z,12.6
2022-10-30T06:13:25.259Z,12.6
2022-10-30T06:14:29.479Z,14.9
2022-10-30T06:15:34.982Z,15
2022-10-30T06:16:39.131Z,14.2
2022-10-30T06:17:43.790Z,13.3
2022-10-30T06:18:51.099Z,14.9
2022-10-30T06:19:55.302Z,12.6
2022-10-30T06:20:59.407Z,15.9
2022-10-30T06:22:04.067Z,16.5
2022-10-30T06:23:08.932Z,15.9
2022-10-30T06:24:13.201Z,15.7
2022-10-30T06:25:17.247Z,15.2
2022-10-30T06:26:21.299Z,12.8
2022-10-30T06:27:25.516Z,15
2022-10-30T06:28:30.191Z,12.7
2022-10-30T06:29:34.538Z,13
2022-10-30T06:30:38.635Z,13.7
2022-10-30T06:31:43.193Z,15
2022-10-30T06:32:47.731Z,13.8
2022-10-30T06:33:57.440Z,13.2
2022-10-30T06:35:02.086Z,13
2022-10-30T06:36:07.142Z,15
2022-10-30T06:37:11.866Z,12.5
2022-10-30T06:38:16.431Z,12.1
2022-10-30T06:39:21.023Z,15.3
2022-10-30T06:40:25.475Z,11.7
2022-10-30T06:41:30.762Z,14
2022-10-30T06:42:35.735Z,11.6
2022-10-30T06:43:48.176Z,13.2
2022-10-30T06:44:52.459Z,11.7
2022-10-30T06:45:57.056Z,12.1
2022-10-30T06:47:01.751Z,13.8
2022-10-30T06:48:06.228Z,12.1
2022-10-30T06:49:10.939Z,10.6
2022-10-30T06:50:15.823Z,12.4
2022-10-30T06:51:20.031Z,12.4
2022-10-30T06:52:24.539Z,12
2022-10-30T06:53:28.719Z,12
2022-10-30T06:54:33.295Z,11.3
2022-10-30T06:55:37.834Z,11.4
2022-10-30T06:56:42.446Z,11.2
2022-10-30T06:57:46.839Z,12.6
2022-10-30T06:58:53.930Z,13.2
2022-10-30T06:59:58.211Z,12.9
2022-10-30T07:01:03.175Z,12.5
2022-10-30T07:02:12.554Z,12.9
2022-10-30T07:03:17.199Z,11
2022-10-30T07:04:21.971Z,10.5
2022-10-30T07:05:26.475Z,11.4
2022-10-30T07:06:30.672Z,11.2
2022-10-30T07:07:36.914Z,10.8
2022-10-30T07:08:43.426Z,12.5
2022-10-30T07:09:48.118Z,12.1
2022-10-30T07:10:52.762Z,12.9
2022-10-30T07:11:58.124Z,12.1
2022-10-30T07:13:02.339Z,12.4
2022-10-30T07:14:06.320Z,13.4
2022-10-30T07:15:10.970Z,12.9
2022-10-30T07:16:15.726Z,13.4
2022-10-30T07:17:20.198Z,14.4
2022-10-30T07:18:25.039Z,15.5
2022-10-30T07:19:29.453Z,14.7
2022-10-30T07:20:35.940Z,13.8
2022-10-30T07:21:40.406Z,14.2
2022-10-30T07:22:45.111Z,13.3
2022-10-30T07:23:49.659Z,12.4
2022-10-30T07:24:54.115Z,12.6
2022-10-30T07:26:03.669Z,12.9
2022-10-30T07:27:04.387Z,12.6
2022-10-30T07:28:08.888Z,12.6
2022-10-30T07:29:12.930Z,12.9
2022-10-30T07:30:17.226Z,13.4
2022-10-30T07:31:28.887Z,12.6
2022-10-30T07:32:27.235Z,13.6
2022-10-30T07:33:31.982Z,14.4
2022-10-30T07:34:36.554Z,12.2
2022-10-30T07:35:41.038Z,12.9
2022-10-30T07:36:46.928Z,13.6
2022-10-30T07:37:51.230Z,12.5
2022-10-30T07:38:55.778Z,11.8
2022-10-30T07:40:00.313Z,11.4
2022-10-30T07:41:05.078Z,11.3
2022-10-30T07:42:11.950Z,11.5
2022-10-30T07:43:16.279Z,12
2022-10-30T07:44:20.883Z,13.3
2022-10-30T07:45:25.517Z,11.8
2022-10-30T07:46:30.287Z,11.3
2022-10-30T07:47:34.571Z,11.9
2022-10-30T07:48:41.646Z,14
2022-10-30T07:49:46.230Z,12
2022-10-30T07:50:50.326Z,12.9
2022-10-30T07:51:54.861Z,10.6
2022-10-30T07:52:59.495Z,13
2022-10-30T07:54:04.041Z,11.4
2022-10-30T07:55:08.168Z,13
2022-10-30T07:56:12.777Z,11.7
2022-10-30T07:57:17.490Z,11.5
2022-10-30T07:58:21.983Z,12.9
2022-10-30T07:59:26.583Z,12.6
2022-10-30T08:00:31.098Z,11.8
2022-10-30T08:01:35.572Z,13
2022-10-30T08:02:39.874Z,12.4
2022-10-30T08:03:43.813Z,11.7
2022-10-30T08:04:47.902Z,12.5
2022-10-30T08:05:51.993Z,13.3
2022-10-30T08:06:56.149Z,13.9
2022-10-30T08:08:01.026Z,12.5
2022-10-30T08:09:05.994Z,11
2022-10-30T08:10:10.346Z,11.6
2022-10-30T08:11:14.513Z,12.1
2022-10-30T08:12:19.094Z,12.8
2022-10-30T08:13:23.647Z,12.3
2022-10-30T08:14:28.277Z,11.9
2022-10-30T08:15:32.930Z,11.3
2022-10-30T08:16:37.909Z,11.6
2022-10-30T08:17:42.478Z,13
2022-10-30T08:18:47.115Z,13.6
2022-10-30T08:19:51.656Z,13.2
2022-10-30T08:20:56.367Z,10.8
2022-10-30T08:22:00.766Z,12
2022-10-30T08:23:05.079Z,13.9
2022-10-30T08:24:09.422Z,12.2
2022-10-30T08:25:13.719Z,13.8
2022-10-30T08:26:18.199Z,14.4
2022-10-30T08:27:22.973Z,12.4
2022-10-30T08:28:29.800Z,12
2022-10-30T08:29:31.879Z,14.3
2022-10-30T08:30:36.607Z,14.3
2022-10-30T08:31:41.143Z,14.3
2022-10-30T08:32:45.670Z,13.7
2022-10-30T08:33:50.238Z,12.3
2022-10-30T08:34:54.817Z,13
2022-10-30T08:35:59.527Z,11.9
2022-10-30T08:37:04.095Z,13.1
2022-10-30T08:38:08.673Z,12.3
2022-10-30T08:39:13.365Z,12.3
2022-10-30T08:40:17.781Z,13
2022-10-30T08:41:22.433Z,12.6
2022-10-30T08:42:26.987Z,12.2
2022-10-30T08:43:31.449Z,12.6
2022-10-30T08:44:35.609Z,11.6
2022-10-30T08:45:40.249Z,10.9
2022-10-30T08:46:44.738Z,12.5
2022-10-30T08:47:49.330Z,11.2
2022-10-30T08:48:56.377Z,11.6
2022-10-30T08:50:00.490Z,13.1
2022-10-30T08:51:05.174Z,12.7
2022-10-30T08:52:09.636Z,12.4
2022-10-30T08:53:13.901Z,11.6
2022-10-30T08:54:18.390Z,10.7
2022-10-30T08:55:23.058Z,11
2022-10-30T08:56:27.569Z,11.6
2022-10-30T08:57:32.181Z,12.3
2022-10-30T08:58:36.629Z,12.1
2022-10-30T08:59:41.232Z,11.4
2022-10-30T09:00:45.308Z,12
2022-10-30T09:01:50.092Z,12.4
2022-10-30T09:02:54.457Z,12.3
2022-10-30T09:03:58.547Z,13.6
2022-10-30T09:05:03.127Z,13.6
2022-10-30T09:06:07.955Z,12
2022-10-30T09:07:12.984Z,11.4
2022-10-30T09:08:16.913Z,11.5
2022-10-30T09:09:21.525Z,11.7
2022-10-30T09:10:26.133Z,11.2
2022-10-30T09:11:30.643Z,11.3
2022-10-30T09:12:34.822Z,10.5
2022-10-30T09:13:39.333Z,10
2022-10-30T09:14:43.837Z,9.9
2022-10-30T09:15:48.462Z,10.6
2022-10-30T09:16:52.993Z,10.7
2022-10-30T09:17:57.359Z,11.6
2022-10-30T09:19:01.726Z,10.7
2022-10-30T09:20:06.265Z,9.8
2022-10-30T09:21:10.901Z,9.9
2022-10-30T09:22:15.489Z,9.7
2022-10-30T09:23:20.010Z,9.7
2022-10-30T09:24:24.146Z,11.1
2022-10-30T09:25:28.722Z,10.6
2022-10-30T09:26:33.243Z,11.5
2022-10-30T09:27:37.841Z,10.9
2022-10-30T09:28:41.911Z,9.8
2022-10-30T09:29:46.513Z,10.2
2022-10-30T09:30:51.242Z,11.2
2022-10-30T09:31:55.580Z,9.5
2022-10-30T09:33:00.008Z,9.4
2022-10-30T09:34:04.008Z,9.4
2022-10-30T09:35:08.610Z,9
2022-10-30T09:36:15.602Z,9.6
2022-10-30T09:37:17.118Z,9.3
2022-10-30T09:38:21.737Z,9.5
2022-10-30T09:39:26.245Z,10.8
2022-10-30T09:40:30.333Z,9.2
2022-10-30T09:41:48.518Z,9.7
2022-10-30T09:42:59.849Z,11.3
2022-10-30T09:44:09.514Z,9.9
2022-10-30T09:45:28.412Z,9.6
2022-10-30T09:46:26.459Z,10.6
2022-10-30T09:47:38.601Z,10.6
2022-10-30T09:48:53.361Z,10.5
2022-10-30T09:50:03.033Z,10
2022-10-30T09:51:07.575Z,9.6
2022-10-30T09:52:22.422Z,10.2
2022-10-30T09:53:34.585Z,10.8
2022-10-30T09:54:49.283Z,10.1
2022-10-30T09:56:03.932Z,11.8
2022-10-30T09:57:16.485Z,12
2022-10-30T09:58:25.865Z,10.2
2022-10-30T09:59:40.722Z,14.8
2022-10-30T10:00:50.444Z,11.9
2022-10-30T10:01:55.079Z,9.7
2022-10-30T10:03:07.527Z,9.2
2022-10-30T10:04:14.905Z,10.1
2022-10-30T10:05:19.431Z,9.7
2022-10-30T10:06:29.018Z,8.9
2022-10-30T10:07:33.746Z,9.9
2022-10-30T10:08:38.173Z,8.9
2022-10-30T10:09:42.782Z,8.7
2022-10-30T10:10:47.228Z,8.7
2022-10-30T10:11:54.336Z,8.7
2022-10-30T10:13:01.775Z,8.7
2022-10-30T10:14:06.052Z,9.1
2022-10-30T10:15:12.660Z,8.5
2022-10-30T10:16:19.982Z,9.1
2022-10-30T10:17:24.416Z,9.8
2022-10-30T10:18:29.121Z,9.7
2022-10-30T10:19:33.624Z,9.8
2022-10-30T10:20:43.277Z,9
2022-10-30T10:21:48.028Z,9.8
2022-10-30T10:22:54.929Z,9.8
2022-10-30T10:23:59.013Z,9.7
2022-10-30T10:25:03.550Z,9.6
2022-10-30T10:26:08.257Z,10.4
2022-10-30T10:27:12.770Z,11.3
2022-10-30T10:28:16.889Z,12.3
2022-10-30T10:29:29.136Z,10.1
2022-10-30T10:30:38.869Z,9.6
2022-10-30T10:31:43.424Z,9.9
2022-10-30T10:32:52.967Z,12.1
2022-10-30T10:34:07.698Z,10.7
2022-10-30T10:35:14.880Z,10.8
2022-10-30T10:36:24.619Z,10
2022-10-30T10:37:34.212Z,10.6
2022-10-30T10:38:46.958Z,10.4
2022-10-30T10:40:01.746Z,11.2
2022-10-30T10:41:11.229Z,10.5
2022-10-30T10:42:23.610Z,10.6
2022-10-30T10:43:30.685Z,10.3
2022-10-30T10:44:45.531Z,10.3
2022-10-30T10:45:50.049Z,10.7
2022-10-30T10:47:02.982Z,11.8
2022-10-30T10:48:09.359Z,12.6
2022-10-30T10:49:19.605Z,13.9
2022-10-30T10:50:29.221Z,10.8
2022-10-30T10:51:38.942Z,13.8
2022-10-30T10:52:43.529Z,14.8
2022-10-30T10:53:53.212Z,16.1
2022-10-30T10:55:00.280Z,12.4
2022-10-30T10:56:07.359Z,9.6
2022-10-30T10:57:11.930Z,9.6
2022-10-30T10:58:26.761Z,9.1
2022-10-30T10:59:31.388Z,9
2022-10-30T11:00:41.397Z,9.8
2022-10-30T11:01:45.728Z,9.5
2022-10-30T11:02:53.130Z,9.1
2022-10-30T11:03:57.943Z,9.6
2022-10-30T11:05:12.566Z,10.2
2022-10-30T11:06:25.325Z,9.2
2022-10-30T11:07:32.586Z,9.2
2022-10-30T11:08:36.989Z,8.7
2022-10-30T11:09:41.643Z,9.2
2022-10-30T11:10:46.129Z,8.8
2022-10-30T11:11:50.241Z,9.1
2022-10-30T11:12:54.893Z,8.5
2022-10-30T11:13:59.329Z,9
2022-10-30T11:15:03.408Z,9
2022-10-30T11:16:13.228Z,8.8
2022-10-30T11:17:25.388Z,9.7
2022-10-30T11:18:30.029Z,9.4
2022-10-30T11:19:34.497Z,9.6
2022-10-30T11:20:39.132Z,9.5
2022-10-30T11:21:48.889Z,9.8
2022-10-30T11:22:53.599Z,10
2022-10-30T11:23:58.006Z,10.5
2022-10-30T11:25:02.512Z,10.3
2022-10-30T11:26:17.302Z,9.8
2022-10-30T11:27:21.545Z,9.1
2022-10-30T11:28:29.395Z,9.1
2022-10-30T11:29:38.794Z,8.2
2022-10-30T11:30:42.838Z,8.6
2022-10-30T11:31:46.956Z,8.1
2022-10-30T11:32:59.332Z,7.8
2022-10-30T11:34:03.867Z,8.6
2022-10-30T11:35:13.417Z,8.3
2022-10-30T11:36:18.109Z,8.1
2022-10-30T11:37:22.836Z,7.6
2022-10-30T11:38:30.265Z,7.7
2022-10-30T11:39:35.145Z,7.5
2022-10-30T11:40:39.566Z,6.9
2022-10-30T11:41:46.544Z,7.6
2022-10-30T11:42:56.612Z,8.1
2022-10-30T11:44:00.814Z,7.7
2022-10-30T11:45:05.414Z,7.4
2022-10-30T11:46:15.014Z,7.7
2022-10-30T11:47:19.629Z,7.7
2022-10-30T11:48:29.222Z,7.9
2022-10-30T11:49:33.532Z,7.5
2022-10-30T11:50:41.234Z,7.5
2022-10-30T11:51:45.621Z,7.8
2022-10-30T11:52:50.326Z,7.6
2022-10-30T11:53:54.754Z,7.3
2022-10-30T11:54:59.331Z,7.6
2022-10-30T11:56:03.982Z,7.4
2022-10-30T11:57:11.116Z,7.8
2022-10-30T11:58:21.278Z,7.7
2022-10-30T11:59:28.875Z,7.8
2022-10-30T12:00:33.342Z,7.8
2022-10-30T12:01:37.933Z,8
2022-10-30T12:02:42.080Z,7.2
2022-10-30T12:03:46.830Z,7.7
2022-10-30T12:04:51.514Z,7.5
2022-10-30T12:06:00.962Z,7.7
2022-10-30T12:07:11.210Z,7.3
2022-10-30T12:08:23.304Z,7
2022-10-30T12:09:27.846Z,7.4
2022-10-30T12:10:32.389Z,7.5
2022-10-30T12:11:43.187Z,7
2022-10-30T12:12:47.738Z,7.4
2022-10-30T12:13:52.318Z,9.9
2022-10-30T12:14:56.882Z,6.5
2022-10-30T12:16:11.871Z,6.7
2022-10-30T12:17:16.205Z,7
2022-10-30T12:18:20.926Z,6.6
2022-10-30T12:19:28.174Z,6.9
2022-10-30T12:20:32.578Z,6.7
2022-10-30T12:21:37.169Z,11.9
2022-10-30T12:22:41.789Z,11.2
2022-10-30T12:23:46.266Z,7.3
2022-10-30T12:24:56.045Z,7.3
2022-10-30T12:26:00.441Z,7
2022-10-30T12:27:10.268Z,6.6
2022-10-30T12:28:14.718Z,6.9
2022-10-30T12:29:36.639Z,6.8
2022-10-30T12:30:41.763Z,6.2
2022-10-30T12:31:53.953Z,6.5
2022-10-30T12:32:58.477Z,6.9
2022-10-30T12:34:07.762Z,6.7
2022-10-30T12:35:22.458Z,6.7
2022-10-30T12:36:37.191Z,7.2
2022-10-30T12:37:41.274Z,6.9
2022-10-30T12:38:45.307Z,7.3
2022-10-30T12:39:52.471Z,7.2
2022-10-30T12:41:02.190Z,7.2
2022-10-30T12:42:09.722Z,6.7
2022-10-30T12:43:13.857Z,6.8
2022-10-30T12:44:18.345Z,6.5
2022-10-30T12:45:22.706Z,6.4
2022-10-30T12:46:30.291Z,6.6
2022-10-30T12:47:34.730Z,6.7
2022-10-30T12:48:42.295Z,6.8
2022-10-30T12:49:52.036Z,7.3
2022-10-30T12:51:01.718Z,7.3
2022-10-30T12:52:16.381Z,7.8
2022-10-30T12:53:26.023Z,7.7
2022-10-30T12:54:33.113Z,7.8
2022-10-30T12:55:40.358Z,7.4
2022-10-30T12:56:45.102Z,7.9
2022-10-30T12:57:49.533Z,7.6
2022-10-30T12:59:01.731Z,7
2022-10-30T13:00:16.509Z,7.3
2022-10-30T13:01:21.120Z,7.4
2022-10-30T13:02:28.036Z,7.5
2022-10-30T13:03:42.950Z,7.4
2022-10-30T13:04:57.754Z,7.2
2022-10-30T13:06:02.199Z,7.8
2022-10-30T13:07:09.331Z,6.6
2022-10-30T13:08:22.062Z,7.1
2022-10-30T13:09:26.601Z,6.9
2022-10-30T13:10:36.296Z,7.4
2022-10-30T13:11:43.409Z,6.7
2022-10-30T13:12:47.586Z,7.7
2022-10-30T13:13:54.777Z,7
2022-10-30T13:14:59.281Z,7.1
2022-10-30T13:16:03.331Z,7.1
2022-10-30T13:17:07.907Z,7
2022-10-30T13:18:12.200Z,6.7
2022-10-30T13:19:20.265Z,7
2022-10-30T13:20:28.537Z,7.1
2022-10-30T13:21:33.477Z,7
2022-10-30T13:22:43.646Z,18
2022-10-30T13:23:48.838Z,19.4
2022-10-30T13:24:59.208Z,13.5
2022-10-30T13:26:12.385Z,22.4
2022-10-30T13:27:20.353Z,10.7
2022-10-30T13:28:30.466Z,13.1
2022-10-30T13:29:45.382Z,13.2
2022-10-30T13:30:56.018Z,8.6
2022-10-30T13:32:08.821Z,14.9
2022-10-30T13:33:19.381Z,21.8
2022-10-30T13:34:24.897Z,13.6
2022-10-30T13:35:32.931Z,8.2
2022-10-30T13:36:47.766Z,7.7
2022-10-30T13:38:00.658Z,7.6
2022-10-30T13:39:15.026Z,6.9
2022-10-30T13:40:19.521Z,6.7
2022-10-30T13:41:26.227Z,9.6
2022-10-30T13:42:33.358Z,7
2022-10-30T13:43:43.291Z,7.3
2022-10-30T13:44:55.765Z,7.3
2022-10-30T13:46:10.556Z,7.1
2022-10-30T13:47:18.093Z,7.1
2022-10-30T13:48:30.329Z,8.4
2022-10-30T13:49:39.992Z,7.5
2022-10-30T13:50:54.862Z,6.3
2022-10-30T13:52:09.469Z,6.7
2022-10-30T13:53:16.701Z,6.6
2022-10-30T13:54:21.342Z,6.7
2022-10-30T13:55:34.437Z,5.6
2022-10-30T13:56:39.645Z,5.7
2022-10-30T13:57:44.286Z,5.9
2022-10-30T13:58:56.577Z,5.6
2022-10-30T14:00:08.734Z,5.9
2022-10-30T14:01:18.903Z,6.3
2022-10-30T14:02:28.616Z,5.3
2022-10-30T14:03:43.322Z,5.5
2022-10-30T14:04:57.927Z,5.6
2022-10-30T14:06:05.094Z,5.4
2022-10-30T14:07:14.941Z,5.8
2022-10-30T14:08:24.565Z,6.2
2022-10-30T14:09:34.190Z,6.2
2022-10-30T14:10:41.294Z,6.3
2022-10-30T14:11:48.390Z,5.2
2022-10-30T14:12:55.836Z,6.5
2022-10-30T14:14:00.218Z,6.9
2022-10-30T14:15:04.329Z,9.2
2022-10-30T14:16:08.813Z,8.9
2022-10-30T14:17:23.642Z,12.5
2022-10-30T14:18:28.131Z,7.9
2022-10-30T14:19:38.444Z,7.7
2022-10-30T14:20:53.121Z,5.6
2022-10-30T14:21:57.721Z,6.7
2022-10-30T14:23:02.429Z,7.5
2022-10-30T14:24:12.279Z,7.2
2022-10-30T14:25:26.918Z,6.9
2022-10-30T14:26:31.217Z,6.4
2022-10-30T14:27:35.449Z,8.9
2022-10-30T14:28:40.045Z,7.4
2022-10-30T14:29:44.620Z,7.1
2022-10-30T14:30:49.083Z,7
2022-10-30T14:32:04.072Z,6.6
2022-10-30T14:33:13.630Z,6.6
2022-10-30T14:34:28.278Z,6
2022-10-30T14:35:37.944Z,5.7
2022-10-30T14:36:42.086Z,7.2
2022-10-30T14:37:46.789Z,10.6
2022-10-30T14:38:51.325Z,7.1
2022-10-30T14:40:01.180Z,6.3
2022-10-30T14:41:15.761Z,6.3
2022-10-30T14:42:22.926Z,5.5
2022-10-30T14:43:33.017Z,6.5
2022-10-30T14:44:42.802Z,6.8
2022-10-30T14:45:55.690Z,6.6
2022-10-30T14:47:00.867Z,6.4
2022-10-30T14:48:12.143Z,6.6
2022-10-30T14:49:16.234Z,6.5
2022-10-30T14:50:26.005Z,6.6
2022-10-30T14:51:36.645Z,6.9
2022-10-30T14:52:41.318Z,6.4
2022-10-30T14:53:56.033Z,6.6
2022-10-30T14:55:08.241Z,6.5
2022-10-30T14:56:22.918Z,6.5
2022-10-30T14:57:37.618Z,7.1